| time (UTC) | temp F | wind direction | speed MPH | gust MPH | rain 1hr in | rain 24hr in | rain mn in | humidity % | barometer mb |
| 20260506084233 | 45 | 38 | 1.0 | 9.0 | 0.00 | 0.00 | 0.00 | 77 | 1013.6 |
| 20260506083730 | 45 | 48 | 2.0 | 10.0 | 0.00 | 0.00 | 0.00 | 77 | 1013.5 |
| 20260506083232 | 45 | 90 | 4.0 | 11.0 | 0.00 | 0.00 | 0.00 | 77 | 1013.4 |
| 20260506082732 | 45 | 110 | 2.0 | 11.0 | 0.00 | 0.00 | 0.00 | 77 | 1013.4 |
| 20260506082629 | 45 | 72 | 3.0 | 9.0 | 0.00 | 0.00 | 0.00 | 76 | 1013.3 |
| 20260506081731 | 45 | 28 | 2.0 | 10.0 | 0.00 | 0.00 | 0.00 | 76 | 1013.2 |
| 20260506081230 | 45 | 47 | 2.0 | 10.0 | 0.00 | 0.00 | 0.00 | 77 | 1013.2 |
| 20260506080731 | 45 | 65 | 3.0 | 10.0 | 0.00 | 0.00 | 0.00 | 76 | 1013.3 |
| 20260506080231 | 45 | 124 | 1.0 | 7.0 | 0.00 | 0.00 | 0.00 | 77 | 1013.3 |
| 20260506073231 | 44 | 86 | 4.0 | 9.0 | 0.00 | 0.00 | 0.00 | 77 | 1012.4 |
| 20260506073119 | 44 | 100 | 4.0 | 12.0 | 0.00 | 0.00 | 0.00 | 77 | 1012.4 |
| 20260506072552 | 44 | 94 | 6.0 | 12.0 | 0.00 | 0.00 | 0.00 | 77 | 1012.2 |
| 20260506072124 | 44 | 104 | 6.0 | 12.0 | 0.00 | 0.00 | 0.00 | 77 | 1012.4 |
| 20260506071230 | 44 | 106 | 3.0 | 9.0 | 0.00 | 0.00 | 0.00 | 76 | 1012.8 |
| 20260506071120 | 45 | 99 | 4.0 | 9.0 | 0.00 | 0.00 | 0.00 | 76 | 1012.9 |
| 20260506070231 | 45 | 124 | 1.0 | 7.0 | 0.00 | 0.00 | 0.00 | 76 | 1013.3 |
| 20260506062233 | 44 | 87 | 1.0 | 9.0 | 0.00 | 0.00 | 0.00 | 76 | 1013.3 |
| 20260506061731 | 44 | 86 | 1.0 | 9.0 | 0.00 | 0.00 | 0.00 | 76 | 1013.0 |
| 20260506061614 | 44 | 63 | 2.0 | 6.0 | 0.00 | 0.00 | 0.00 | 76 | 1013.0 |
| 20260506060732 | 44 | 93 | 2.0 | 6.0 | 0.00 | 0.00 | 0.00 | 76 | 1012.8 |
| 20260506060229 | 45 | 61 | 1.0 | 5.0 | 0.00 | 0.00 | 0.00 | 76 | 1012.8 |
| 20260506051122 | 46 | 135 | 8.0 | 17.0 | 0.00 | 0.00 | 0.00 | 73 | 1012.0 |
| 20260506050231 | 46 | 73 | 5.0 | 11.0 | 0.00 | 0.00 | 0.00 | 72 | 1012.0 |
| 20260506050116 | 46 | 138 | 6.0 | 13.0 | 0.00 | 0.00 | 0.00 | 72 | 1011.8 |
| 20260506044732 | 47 | 85 | 6.0 | 17.0 | 0.00 | 0.00 | 0.00 | 71 | 1011.7 |
| 20260506044229 | 47 | 103 | 9.0 | 17.0 | 0.00 | 0.00 | 0.00 | 70 | 1011.6 |
| 20260506043733 | 47 | 94 | 7.0 | 17.0 | 0.00 | 0.00 | 0.00 | 70 | 1011.7 |
| 20260506043230 | 47 | 116 | 8.0 | 17.0 | 0.00 | 0.00 | 0.00 | 69 | 1011.6 |
| 20260506042731 | 47 | 109 | 10.0 | 17.0 | 0.00 | 0.00 | 0.00 | 68 | 1011.5 |
| 20260506042627 | 47 | 110 | 6.0 | 14.0 | 0.00 | 0.00 | 0.00 | 68 | 1011.5 |
| 20260506041732 | 47 | 102 | 8.0 | 14.0 | 0.00 | 0.00 | 0.00 | 67 | 1011.5 |
| 20260506041230 | 48 | 114 | 8.0 | 16.0 | 0.00 | 0.00 | 0.00 | 67 | 1011.6 |
| 20260506040730 | 48 | 104 | 10.0 | 16.0 | 0.00 | 0.00 | 0.00 | 66 | 1011.7 |
| 20260506040231 | 48 | 96 | 4.0 | 16.0 | 0.00 | 0.00 | 0.00 | 66 | 1011.7 |
| 20260506035947 | 49 | 82 | 6.0 | 16.0 | 0.00 | 0.00 | 0.00 | 66 | 1011.6 |
| 20260506035231 | 49 | 140 | 6.0 | 15.0 | 0.00 | 0.00 | 0.00 | 65 | 1011.5 |
| 20260506034729 | 49 | 102 | 7.0 | 12.0 | 0.00 | 0.00 | 0.00 | 64 | 1011.4 |
| 20260506034231 | 49 | 118 | 5.0 | 15.0 | 0.00 | 0.00 | 0.00 | 64 | 1011.3 |
| 20260506033730 | 50 | 104 | 6.0 | 15.0 | 0.00 | 0.00 | 0.00 | 63 | 1011.1 |
| 20260506033230 | 50 | 47 | 3.0 | 12.0 | 0.00 | 0.00 | 0.00 | 62 | 1011.1 |
| 20260506032730 | 50 | 118 | 4.0 | 14.0 | 0.00 | 0.00 | 0.00 | 62 | 1011.1 |
| 20260506032232 | 51 | 111 | 5.0 | 14.0 | 0.00 | 0.00 | 0.00 | 61 | 1011.1 |
| 20260506031732 | 51 | 93 | 8.0 | 14.0 | 0.00 | 0.00 | 0.00 | 60 | 1011.1 |
| 20260506031231 | 51 | 125 | 6.0 | 12.0 | 0.00 | 0.00 | 0.00 | 60 | 1011.3 |
| 20260506030730 | 51 | 97 | 5.0 | 12.0 | 0.00 | 0.00 | 0.00 | 59 | 1010.8 |
| 20260506030230 | 51 | 102 | 6.0 | 11.0 | 0.00 | 0.00 | 0.00 | 58 | 1010.9 |
| 20260506025731 | 52 | 107 | 3.0 | 11.0 | 0.00 | 0.00 | 0.00 | 58 | 1010.8 |
| 20260506025230 | 52 | 106 | 1.0 | 7.0 | 0.00 | 0.00 | 0.00 | 58 | 1010.7 |
| 20260506024730 | 52 | 135 | 3.0 | 12.0 | 0.00 | 0.00 | 0.00 | 58 | 1010.8 |
| 20260506024232 | 52 | 100 | 4.0 | 12.0 | 0.00 | 0.00 | 0.00 | 57 | 1010.9 |
| 20260506023732 | 52 | 100 | 2.0 | 12.0 | 0.00 | 0.00 | 0.00 | 57 | 1010.7 |
| 20260506023614 | 53 | 78 | 4.0 | 12.0 | 0.00 | 0.00 | 0.00 | 56 | 1010.5 |
| 20260506022730 | 53 | 109 | 2.0 | 9.0 | 0.00 | 0.00 | 0.00 | 56 | 1010.5 |
| 20260506022231 | 53 | 68 | 2.0 | 11.0 | 0.00 | 0.00 | 0.00 | 56 | 1010.0 |
| 20260506021731 | 53 | 109 | 5.0 | 11.0 | 0.00 | 0.00 | 0.00 | 56 | 1010.0 |
| 20260506021231 | 53 | 69 | 4.0 | 10.0 | 0.00 | 0.00 | 0.00 | 55 | 1010.0 |
| 20260506020731 | 53 | 118 | 4.0 | 7.0 | 0.00 | 0.00 | 0.00 | 55 | 1009.9 |
| 20260506020231 | 54 | 24 | 3.0 | 9.0 | 0.00 | 0.00 | 0.00 | 56 | 1010.3 |
| 20260506015730 | 54 | 24 | 3.0 | 10.0 | 0.00 | 0.00 | 0.00 | 56 | 1009.8 |
| 20260506015230 | 55 | 32 | 3.0 | 10.0 | 0.00 | 0.00 | 0.00 | 53 | 1010.1 |
| 20260506014730 | 55 | 73 | 2.0 | 7.0 | 0.00 | 0.00 | 0.00 | 53 | 1010.3 |
| 20260506014230 | 55 | 44 | 2.0 | 7.0 | 0.00 | 0.00 | 0.00 | 53 | 1010.0 |
| 20260506014115 | 56 | 16 | 3.0 | 10.0 | 0.00 | 0.00 | 0.00 | 52 | 1010.0 |
| 20260506013230 | 56 | 66 | 3.0 | 13.0 | 0.00 | 0.00 | 0.00 | 52 | 1010.1 |
| 20260506012731 | 56 | 10 | 4.0 | 13.0 | 0.00 | 0.00 | 0.00 | 52 | 1009.9 |
| 20260506012508 | 57 | 0 | 2.0 | 12.0 | 0.00 | 0.00 | 0.00 | 51 | 1009.8 |
| 20260506012358 | 56 | 17 | 4.0 | 9.0 | 0.00 | 0.00 | 0.00 | 51 | 1009.8 |
| 20260506011620 | 57 | 30 | 4.0 | 12.0 | 0.00 | 0.00 | 0.00 | 51 | 1009.5 |
| 20260506011120 | 57 | 24 | 2.0 | 5.0 | 0.00 | 0.00 | 0.00 | 51 | 1009.4 |
| 20260506010231 | 57 | 52 | 2.0 | 9.0 | 0.00 | 0.00 | 0.00 | 51 | 1009.4 |
| 20260506005731 | 57 | 55 | 2.0 | 9.0 | 0.00 | 0.00 | 0.00 | 50 | 1009.3 |
| 20260506005230 | 58 | 117 | 2.0 | 14.0 | 0.00 | 0.00 | 0.00 | 50 | 1009.3 |
| 20260506004730 | 58 | 0 | 2.0 | 14.0 | 0.00 | 0.00 | 0.00 | 49 | 1009.1 |
| 20260506004612 | 59 | 79 | 4.0 | 14.0 | 0.00 | 0.00 | 0.00 | 49 | 1008.8 |
| 20260506003730 | 59 | 82 | 2.0 | 11.0 | 0.00 | 0.00 | 0.00 | 49 | 1008.8 |
| 20260506003230 | 59 | 39 | 1.0 | 6.0 | 0.00 | 0.00 | 0.00 | 49 | 1008.8 |
| 20260506002731 | 59 | 85 | 2.0 | 9.0 | 0.00 | 0.00 | 0.00 | 48 | 1008.8 |
| 20260506002230 | 59 | 86 | 3.0 | 9.0 | 0.00 | 0.00 | 0.00 | 48 | 1008.5 |
| 20260506001731 | 60 | 8 | 2.0 | 9.0 | 0.00 | 0.00 | 0.00 | 47 | 1008.7 |
| 20260506001230 | 60 | 83 | 2.0 | 10.0 | 0.00 | 0.00 | 0.00 | 47 | 1008.6 |
| 20260506000731 | 60 | 123 | 3.0 | 10.0 | 0.00 | 0.00 | 0.00 | 47 | 1008.5 |
| 20260506000232 | 60 | 56 | 5.0 | 13.0 | 0.00 | 0.00 | 0.00 | 47 | 1008.6 |
| 20260505235731 | 60 | 99 | 4.0 | 13.0 | 0.00 | 0.00 | 0.00 | 47 | 1008.6 |
| 20260505235231 | 60 | 52 | 2.0 | 9.0 | 0.00 | 0.00 | 0.00 | 46 | 1008.8 |
| 20260505234729 | 60 | 333 | 3.0 | 9.0 | 0.00 | 0.00 | 0.00 | 47 | 1008.7 |
| 20260505234231 | 61 | 86 | 2.0 | 10.0 | 0.00 | 0.00 | 0.00 | 47 | 1008.7 |
| 20260505233730 | 61 | 0 | 3.0 | 11.0 | 0.00 | 0.00 | 0.00 | 46 | 1008.6 |
| 20260505233230 | 61 | 123 | 6.0 | 11.0 | 0.00 | 0.00 | 0.00 | 46 | 1008.7 |
| 20260505232730 | 61 | 24 | 3.0 | 11.0 | 0.00 | 0.00 | 0.00 | 46 | 1008.7 |
| 20260505232231 | 61 | 55 | 5.0 | 11.0 | 0.00 | 0.00 | 0.00 | 45 | 1008.5 |
| 20260505231732 | 62 | 41 | 2.0 | 12.0 | 0.00 | 0.00 | 0.00 | 45 | 1008.6 |
| 20260505231230 | 62 | 83 | 3.0 | 12.0 | 0.00 | 0.00 | 0.00 | 46 | 1008.6 |
| 20260505230730 | 62 | 106 | 5.0 | 13.0 | 0.00 | 0.00 | 0.00 | 45 | 1008.7 |
| 20260505230233 | 62 | 109 | 4.0 | 13.0 | 0.00 | 0.00 | 0.00 | 45 | 1008.7 |
| 20260505230131 | 63 | 21 | 2.0 | 11.0 | 0.00 | 0.00 | 0.00 | 45 | 1008.8 |
| 20260505225611 | 63 | 109 | 5.0 | 11.0 | 0.00 | 0.00 | 0.00 | 44 | 1008.7 |
| 20260505224730 | 63 | 89 | 4.0 | 11.0 | 0.00 | 0.00 | 0.00 | 44 | 1008.8 |
| 20260505224230 | 63 | 118 | 2.0 | 11.0 | 0.00 | 0.00 | 0.00 | 46 | 1008.8 |
| 20260505224118 | 63 | 102 | 3.0 | 9.0 | 0.00 | 0.00 | 0.00 | 44 | 1008.8 |
| 20260505223230 | 62 | 106 | 2.0 | 10.0 | 0.00 | 0.00 | 0.00 | 45 | 1008.8 |
| 20260505223015 | 62 | 99 | 6.0 | 15.0 | 0.00 | 0.00 | 0.00 | 44 | 1009.1 |
| 20260505222902 | 62 | 38 | 2.0 | 15.0 | 0.00 | 0.00 | 0.00 | 45 | 1009.1 |
| 20260505221730 | 62 | 16 | 1.0 | 9.0 | 0.00 | 0.00 | 0.00 | 44 | 1009.0 |
| 20260505221231 | 62 | 31 | 2.0 | 9.0 | 0.00 | 0.00 | 0.00 | 44 | 1009.1 |
| 20260505221016 | 63 | 113 | 2.0 | 7.0 | 0.00 | 0.00 | 0.00 | 44 | 1009.1 |
| 20260505220903 | 63 | 55 | 1.0 | 9.0 | 0.00 | 0.00 | 0.00 | 44 | 1009.1 |
| 20260505215730 | 63 | 35 | 2.0 | 7.0 | 0.00 | 0.00 | 0.00 | 43 | 1009.0 |
| 20260505215231 | 63 | 59 | 3.0 | 10.0 | 0.00 | 0.00 | 0.00 | 44 | 1009.4 |
| 20260505214732 | 63 | 102 | 5.0 | 10.0 | 0.00 | 0.00 | 0.00 | 43 | 1009.5 |
| 20260505214621 | 64 | 168 | 4.0 | 10.0 | 0.00 | 0.00 | 0.00 | 42 | 1009.6 |
| 20260505213730 | 64 | 94 | 1.0 | 7.0 | 0.00 | 0.00 | 0.00 | 44 | 1009.8 |
| 20260505213618 | 63 | 25 | 2.0 | 7.0 | 0.00 | 0.00 | 0.00 | 43 | 1010.0 |
| 20260505212731 | 63 | 111 | 1.0 | 5.0 | 0.00 | 0.00 | 0.00 | 43 | 1009.9 |
| 20260505212230 | 63 | 30 | 1.0 | 5.0 | 0.00 | 0.00 | 0.00 | 45 | 1010.0 |
| 20260505211732 | 63 | 35 | 1.0 | 10.0 | 0.00 | 0.00 | 0.00 | 45 | 1010.3 |
| 20260505211231 | 62 | 259 | 3.0 | 10.0 | 0.00 | 0.00 | 0.00 | 44 | 1010.4 |
| 20260505210730 | 63 | 97 | 4.0 | 10.0 | 0.00 | 0.00 | 0.00 | 45 | 1010.3 |
| 20260505210230 | 62 | 0 | 0.0 | 10.0 | 0.00 | 0.00 | 0.00 | 45 | 1010.3 |
| 20260505205731 | 62 | 96 | 4.0 | 10.0 | 0.00 | 0.00 | 0.00 | 44 | 1010.3 |
| 20260505205615 | 62 | 59 | 3.0 | 6.0 | 0.00 | 0.00 | 0.00 | 44 | 1010.3 |
| 20260505204731 | 64 | 52 | 1.0 | 11.0 | 0.00 | 0.00 | 0.00 | 42 | 1010.5 |
| 20260505204232 | 64 | 23 | 2.0 | 12.0 | 0.00 | 0.00 | 0.00 | 43 | 1010.5 |
| 20260505203730 | 64 | 23 | 1.0 | 12.0 | 0.00 | 0.00 | 0.00 | 42 | 1010.5 |
| 20260505203231 | 65 | 17 | 2.0 | 9.0 | 0.00 | 0.00 | 0.00 | 42 | 1010.5 |
| 20260505202733 | 64 | 27 | 5.0 | 9.0 | 0.00 | 0.00 | 0.00 | 46 | 1010.5 |
| 20260505202232 | 64 | 65 | 4.0 | 9.0 | 0.00 | 0.00 | 0.00 | 44 | 1010.5 |
| 20260505201731 | 64 | 39 | 2.0 | 7.0 | 0.00 | 0.00 | 0.00 | 44 | 1010.9 |
| 20260505201613 | 63 | 37 | 3.0 | 7.0 | 0.00 | 0.00 | 0.00 | 44 | 1010.8 |
| 20260505200730 | 62 | 8 | 3.0 | 9.0 | 0.00 | 0.00 | 0.00 | 45 | 1010.8 |
| 20260505200230 | 62 | 345 | 4.0 | 9.0 | 0.00 | 0.00 | 0.00 | 44 | 1010.5 |
| 20260505195731 | 62 | 47 | 2.0 | 10.0 | 0.00 | 0.00 | 0.00 | 44 | 1010.6 |
| 20260505195232 | 63 | 31 | 2.0 | 10.0 | 0.00 | 0.00 | 0.00 | 43 | 1010.5 |
| 20260505194730 | 64 | 24 | 2.0 | 9.0 | 0.00 | 0.00 | 0.00 | 44 | 1010.5 |
| 20260505194232 | 64 | 78 | 3.0 | 11.0 | 0.00 | 0.00 | 0.00 | 45 | 1010.4 |
| 20260505193731 | 63 | 0 | 5.0 | 11.0 | 0.00 | 0.00 | 0.00 | 44 | 1010.6 |
| 20260505193230 | 63 | 0 | 2.0 | 10.0 | 0.00 | 0.00 | 0.00 | 43 | 1010.7 |
| 20260505192731 | 64 | 52 | 1.0 | 9.0 | 0.00 | 0.00 | 0.00 | 43 | 1010.7 |
| 20260505192229 | 63 | 52 | 2.0 | 9.0 | 0.00 | 0.00 | 0.00 | 44 | 1010.9 |
| 20260505191731 | 63 | 21 | 2.0 | 10.0 | 0.00 | 0.00 | 0.00 | 43 | 1010.8 |
| 20260505191231 | 64 | 54 | 2.0 | 10.0 | 0.00 | 0.00 | 0.00 | 42 | 1010.7 |
| 20260505191017 | 65 | 72 | 1.0 | 12.0 | 0.00 | 0.00 | 0.00 | 42 | 1010.6 |
| 20260505190902 | 65 | 25 | 2.0 | 9.0 | 0.00 | 0.00 | 0.00 | 43 | 1010.6 |
| 20260505185729 | 65 | 27 | 4.0 | 12.0 | 0.00 | 0.00 | 0.00 | 43 | 1010.6 |
| 20260505185230 | 64 | 13 | 2.0 | 12.0 | 0.00 | 0.00 | 0.00 | 44 | 1010.9 |
| 20260505184731 | 64 | 0 | 3.0 | 12.0 | 0.00 | 0.00 | 0.00 | 46 | 1011.0 |
| 20260505184230 | 64 | 0 | 4.0 | 15.0 | 0.00 | 0.00 | 0.00 | 41 | 1010.9 |
| 20260505183729 | 63 | 334 | 6.0 | 15.0 | 0.00 | 0.00 | 0.00 | 43 | 1010.8 |
| 20260505183230 | 63 | 0 | 6.0 | 12.0 | 0.00 | 0.00 | 0.00 | 43 | 1010.9 |
| 20260505182731 | 63 | 3 | 5.0 | 11.0 | 0.00 | 0.00 | 0.00 | 44 | 1010.6 |
| 20260505182230 | 63 | 25 | 5.0 | 15.0 | 0.00 | 0.00 | 0.00 | 44 | 1010.9 |
| 20260505182112 | 62 | 354 | 6.0 | 15.0 | 0.00 | 0.00 | 0.00 | 44 | 1010.9 |
| 20260505181229 | 62 | 8 | 5.0 | 11.0 | 0.00 | 0.00 | 0.00 | 44 | 1011.0 |
| 20260505180729 | 62 | 34 | 5.0 | 13.0 | 0.00 | 0.00 | 0.00 | 43 | 1011.4 |
| 20260505180228 | 62 | 14 | 4.0 | 13.0 | 0.00 | 0.00 | 0.00 | 45 | 1011.4 |
| 20260505175729 | 62 | 6 | 2.0 | 9.0 | 0.00 | 0.00 | 0.00 | 47 | 1011.3 |
| 20260505175229 | 60 | 28 | 2.0 | 12.0 | 0.00 | 0.00 | 0.00 | 46 | 1011.3 |
| 20260505174731 | 60 | 0 | 3.0 | 12.0 | 0.00 | 0.00 | 0.00 | 47 | 1011.3 |
| 20260505174228 | 61 | 25 | 4.0 | 11.0 | 0.00 | 0.00 | 0.00 | 47 | 1011.1 |
| 20260505173729 | 62 | 21 | 4.0 | 14.0 | 0.00 | 0.00 | 0.00 | 45 | 1011.1 |
| 20260505173230 | 62 | 0 | 6.0 | 16.0 | 0.00 | 0.00 | 0.00 | 46 | 1011.1 |
| 20260505172729 | 61 | 13 | 6.0 | 16.0 | 0.00 | 0.00 | 0.00 | 45 | 1011.3 |
| 20260505172229 | 62 | 354 | 6.0 | 16.0 | 0.00 | 0.00 | 0.00 | 48 | 1011.0 |
| 20260505171729 | 60 | 1 | 4.0 | 16.0 | 0.00 | 0.00 | 0.00 | 47 | 1011.0 |
| 20260505171230 | 60 | 23 | 7.0 | 14.0 | 0.00 | 0.00 | 0.00 | 47 | 1011.0 |
| 20260505170730 | 60 | 18 | 6.0 | 14.0 | 0.00 | 0.00 | 0.00 | 48 | 1010.9 |
| 20260505170230 | 60 | 13 | 6.0 | 14.0 | 0.00 | 0.00 | 0.00 | 49 | 1011.0 |
| 20260505165731 | 59 | 0 | 4.0 | 11.0 | 0.00 | 0.00 | 0.00 | 50 | 1011.1 |
| 20260505165230 | 59 | 52 | 4.0 | 13.0 | 0.00 | 0.00 | 0.00 | 51 | 1010.9 |
| 20260505164731 | 58 | 34 | 3.0 | 13.0 | 0.00 | 0.00 | 0.00 | 50 | 1010.9 |
| 20260505164231 | 58 | 21 | 7.0 | 12.0 | 0.00 | 0.00 | 0.00 | 50 | 1010.9 |
| 20260505163729 | 59 | 37 | 5.0 | 13.0 | 0.00 | 0.00 | 0.00 | 49 | 1011.0 |
| 20260505163229 | 59 | 7 | 6.0 | 14.0 | 0.00 | 0.00 | 0.00 | 49 | 1011.0 |
| 20260505162730 | 59 | 355 | 6.0 | 19.0 | 0.00 | 0.00 | 0.00 | 49 | 1010.9 |
| 20260505162617 | 58 | 0 | 7.0 | 19.0 | 0.00 | 0.00 | 0.00 | 50 | 1011.1 |
| 20260505161731 | 58 | 0 | 4.0 | 15.0 | 0.00 | 0.00 | 0.00 | 50 | 1011.0 |
| 20260505161230 | 57 | 16 | 9.0 | 15.0 | 0.00 | 0.00 | 0.00 | 52 | 1011.0 |
| 20260505161124 | 57 | 10 | 7.0 | 17.0 | 0.00 | 0.00 | 0.00 | 53 | 1010.8 |
| 20260505160612 | 57 | 348 | 8.0 | 17.0 | 0.00 | 0.00 | 0.00 | 52 | 1010.7 |
| 20260505153228 | 58 | 13 | 7.0 | 17.0 | 0.00 | 0.00 | 0.00 | 50 | 1010.5 |
| 20260505152729 | 58 | 351 | 10.0 | 17.0 | 0.00 | 0.00 | 0.00 | 50 | 1010.5 |
| 20260505152230 | 57 | 13 | 6.0 | 14.0 | 0.00 | 0.00 | 0.00 | 51 | 1010.4 |
| 20260505151729 | 56 | 0 | 5.0 | 13.0 | 0.00 | 0.00 | 0.00 | 51 | 1010.3 |
| 20260505151229 | 56 | 0 | 6.0 | 14.0 | 0.00 | 0.00 | 0.00 | 52 | 1010.1 |
| 20260505150729 | 56 | 10 | 8.0 | 14.0 | 0.00 | 0.00 | 0.00 | 51 | 1010.0 |
| 20260505150232 | 57 | 21 | 6.0 | 12.0 | 0.00 | 0.00 | 0.00 | 51 | 1009.9 |
| 20260505140229 | 54 | 3 | 9.0 | 17.0 | 0.00 | 0.00 | 0.00 | 52 | 1009.9 |
| 20260505130230 | 53 | 326 | 10.0 | 20.0 | 0.00 | 0.00 | 0.00 | 54 | 1008.0 |
| 20260505124730 | 53 | 0 | 10.0 | 19.0 | 0.00 | 0.00 | 0.00 | 54 | 1008.1 |
| 20260505124229 | 53 | 7 | 7.0 | 17.0 | 0.00 | 0.00 | 0.00 | 55 | 1007.8 |
| 20260505123730 | 53 | 3 | 9.0 | 17.0 | 0.00 | 0.00 | 0.00 | 54 | 1007.8 |
| 20260505123230 | 53 | 326 | 6.0 | 20.0 | 0.00 | 0.00 | 0.00 | 54 | 1007.8 |
| 20260505122730 | 54 | 0 | 7.0 | 20.0 | 0.00 | 0.00 | 0.00 | 54 | 1007.6 |
| 20260505122618 | 54 | 354 | 10.0 | 15.0 | 0.00 | 0.00 | 0.00 | 54 | 1007.6 |
| 20260505121730 | 54 | 17 | 9.0 | 14.0 | 0.00 | 0.00 | 0.00 | 55 | 1007.6 |
| 20260505121230 | 54 | 347 | 5.0 | 16.0 | 0.00 | 0.00 | 0.00 | 55 | 1007.5 |
| 20260505121020 | 54 | 1 | 9.0 | 19.0 | 0.00 | 0.00 | 0.00 | 55 | 1007.4 |
| 20260505120903 | 54 | 6 | 8.0 | 19.0 | 0.00 | 0.00 | 0.00 | 55 | 1007.4 |
| 20260505115729 | 55 | 333 | 7.0 | 17.0 | 0.00 | 0.00 | 0.00 | 55 | 1007.4 |
| 20260505115229 | 55 | 336 | 6.0 | 17.0 | 0.00 | 0.00 | 0.00 | 55 | 1007.0 |
| 20260505115111 | 55 | 7 | 8.0 | 17.0 | 0.00 | 0.00 | 0.00 | 55 | 1007.0 |
| 20260505114619 | 55 | 0 | 7.0 | 17.0 | 0.00 | 0.00 | 0.00 | 55 | 1006.8 |
| 20260505113729 | 55 | 351 | 9.0 | 15.0 | 0.00 | 0.00 | 0.00 | 56 | 1007.0 |
| 20260505113622 | 55 | 0 | 9.0 | 15.0 | 0.00 | 0.00 | 0.00 | 56 | 1007.0 |
| 20260505112729 | 55 | 0 | 9.0 | 16.0 | 0.00 | 0.00 | 0.00 | 56 | 1007.0 |
| 20260505112617 | 55 | 0 | 7.0 | 16.0 | 0.00 | 0.00 | 0.00 | 56 | 1006.9 |
| 20260505111730 | 56 | 357 | 8.0 | 15.0 | 0.00 | 0.00 | 0.00 | 56 | 1006.7 |
| 20260505111230 | 56 | 0 | 9.0 | 17.0 | 0.00 | 0.00 | 0.00 | 57 | 1006.7 |
| 20260505110730 | 56 | 7 | 8.0 | 19.0 | 0.00 | 0.00 | 0.00 | 57 | 1006.8 |
| 20260505110229 | 56 | 348 | 8.0 | 21.0 | 0.00 | 0.00 | 0.00 | 57 | 1006.8 |
| 20260505102111 | 59 | 338 | 9.0 | 22.0 | 0.00 | 0.00 | 0.00 | 55 | 1006.4 |
| 20260505101230 | 59 | 350 | 9.0 | 22.0 | 0.00 | 0.00 | 0.00 | 54 | 1006.5 |
| 20260505100730 | 60 | 299 | 9.0 | 20.0 | 0.00 | 0.00 | 0.00 | 52 | 1006.2 |
| 20260505100230 | 60 | 13 | 11.0 | 21.0 | 0.00 | 0.00 | 0.00 | 51 | 1006.1 |
| 20260505095731 | 61 | 334 | 7.0 | 21.0 | 0.00 | 0.00 | 0.00 | 49 | 1005.9 |
| 20260505095230 | 62 | 347 | 11.0 | 21.0 | 0.00 | 0.00 | 0.00 | 46 | 1005.6 |
| 20260505094731 | 63 | 343 | 10.0 | 20.0 | 0.00 | 0.00 | 0.00 | 40 | 1005.6 |
| 20260505094231 | 64 | 336 | 11.0 | 20.0 | 0.00 | 0.00 | 0.00 | 32 | 1005.4 |
| 20260505093730 | 65 | 336 | 10.0 | 20.0 | 0.00 | 0.00 | 0.00 | 31 | 1005.2 |
| 20260505093229 | 66 | 357 | 6.0 | 17.0 | 0.00 | 0.00 | 0.00 | 28 | 1005.1 |
| 20260505092728 | 67 | 336 | 8.0 | 18.0 | 0.00 | 0.00 | 0.00 | 27 | 1004.8 |
| 20260505092229 | 68 | 358 | 10.0 | 18.0 | 0.00 | 0.00 | 0.00 | 26 | 1004.7 |
| 20260505092018 | 68 | 309 | 4.0 | 14.0 | 0.00 | 0.00 | 0.00 | 27 | 1004.7 |
| 20260505091901 | 68 | 302 | 8.0 | 16.0 | 0.00 | 0.00 | 0.00 | 26 | 1004.8 |
| 20260505090729 | 68 | 292 | 5.0 | 17.0 | 0.00 | 0.00 | 0.00 | 27 | 1004.3 |
| 20260505090229 | 69 | 0 | 4.0 | 20.0 | 0.00 | 0.00 | 0.00 | 27 | 1004.3 |
| 20260505085729 | 68 | 331 | 5.0 | 20.0 | 0.00 | 0.00 | 0.00 | 27 | 1004.5 |
| 20260505085230 | 68 | 286 | 4.0 | 12.0 | 0.00 | 0.00 | 0.00 | 28 | 1004.1 |